Anamur, Turkey
Current Conditions -  °F | °C
As of 2:50 PM on Thursday 29 Jan 2015 (Local Time) from LTFG Reporting Station
Thunderstorm Thunderstorm  
Wind Chill: 52°   Ceiling: 2500
Heat Index: 52°   Visibility: 4mi
Dew Point: 48°   Wind: 8mph
Humidity: 88%   Direction: 330°NNW
Pressure: 29.91"   Gusts: NA
Location:  36.08°N, 32.84°E
Report Text: LTFG 291150Z 33007KT 240V020 7000 TSRA FEW015CB BKN025 11/09 Q1013
Loading
Personal Weather Stations






























Interactive Weather Map New forecast layout! Learn more

10-Day Weather Forecast

Advertisements
Track Severe Weather on mobile